createdAt,value
2019-02-14T00:00:43.088Z,85.08
2019-02-14T00:03:12.515Z,84.82
2019-02-14T00:05:41.964Z,84.56
2019-02-14T00:08:11.308Z,84.34
2019-02-14T00:10:40.732Z,84.04
2019-02-14T00:13:10.075Z,84.44
2019-02-14T00:15:39.453Z,84.67
2019-02-14T00:18:08.790Z,84.70
2019-02-14T00:20:38.166Z,84.23
2019-02-14T00:23:07.580Z,84.14
2019-02-14T00:25:37.006Z,83.74
2019-02-14T00:28:06.340Z,83.59
2019-02-14T00:30:35.697Z,84.19
2019-02-14T00:33:05.037Z,84.43
2019-02-14T00:35:34.401Z,84.62
2019-02-14T00:38:03.740Z,84.41
2019-02-14T00:40:33.110Z,84.28
2019-02-14T00:43:02.513Z,84.37
2019-02-14T00:45:31.872Z,84.58
2019-02-14T00:48:01.281Z,84.58
2019-02-14T00:50:30.645Z,84.48
2019-02-14T00:52:59.980Z,84.60
2019-02-14T00:55:29.347Z,84.53
2019-02-14T00:57:58.678Z,84.50
2019-02-14T01:00:28.037Z,84.51
2019-02-14T01:02:57.383Z,84.55
2019-02-14T01:05:33.409Z,84.54
2019-02-14T01:07:57.821Z,84.51
2019-02-14T01:10:27.150Z,84.88
2019-02-14T01:12:56.507Z,85.06
2019-02-14T01:15:27.217Z,84.91
2019-02-14T01:17:56.595Z,84.73
2019-02-14T01:20:25.921Z,84.54
2019-02-14T01:22:55.360Z,84.61
2019-02-14T01:25:24.855Z,84.57
2019-02-14T01:27:54.225Z,84.87
2019-02-14T01:30:23.560Z,84.88
2019-02-14T01:32:53.174Z,84.98
2019-02-14T01:35:22.513Z,85.06
2019-02-14T01:37:51.944Z,85.46
2019-02-14T01:40:21.285Z,85.65
2019-02-14T01:42:51.160Z,85.82
2019-02-14T01:45:20.563Z,86.03
2019-02-14T01:47:50.183Z,86.27
2019-02-14T01:50:19.554Z,86.15
2019-02-14T01:52:48.921Z,86.14
2019-02-14T01:55:18.256Z,86.09
2019-02-14T01:57:48.132Z,85.94
2019-02-14T02:00:18.030Z,86.01
2019-02-14T02:02:47.389Z,85.99
2019-02-14T02:05:16.730Z,85.90
2019-02-14T02:07:46.096Z,85.79
2019-02-14T02:10:15.431Z,85.77
2019-02-14T02:12:44.858Z,85.88
2019-02-14T02:15:14.715Z,85.95
2019-02-14T02:17:44.152Z,85.86
2019-02-14T02:20:13.487Z,85.82
2019-02-14T02:22:42.859Z,85.82
2019-02-14T02:25:12.462Z,85.84
2019-02-14T02:27:41.819Z,85.85
2019-02-14T02:30:13.492Z,86.01
2019-02-14T02:32:42.865Z,86.23
2019-02-14T02:35:12.205Z,86.45
2019-02-14T02:37:41.564Z,86.28
2019-02-14T02:40:10.902Z,86.12
2019-02-14T02:42:40.268Z,85.87
2019-02-14T02:45:11.543Z,85.72
2019-02-14T02:47:40.908Z,85.49
2019-02-14T02:50:11.876Z,85.47
2019-02-14T02:52:41.241Z,85.61
2019-02-14T02:55:10.854Z,85.42
2019-02-14T02:57:40.219Z,85.23
2019-02-14T03:00:12.649Z,85.06
2019-02-14T03:02:42.007Z,85.16
2019-02-14T03:05:12.986Z,84.93
2019-02-14T03:07:42.364Z,85.28
2019-02-14T03:10:13.230Z,85.27
2019-02-14T03:12:42.601Z,85.20
2019-02-14T03:15:13.677Z,85.21
2019-02-14T03:17:43.040Z,85.04
2019-02-14T03:20:13.027Z,85.22
2019-02-14T03:22:42.375Z,85.21
2019-02-14T03:25:18.909Z,85.18
2019-02-14T03:27:48.281Z,85.12
2019-02-14T03:30:17.625Z,84.86
2019-02-14T03:32:46.974Z,84.73
2019-02-14T03:35:16.318Z,84.71
2019-02-14T03:37:45.682Z,84.75
2019-02-14T03:40:15.284Z,84.96
2019-02-14T03:42:44.651Z,85.31
2019-02-14T03:45:18.963Z,85.24
2019-02-14T03:47:48.374Z,85.01
2019-02-14T03:50:17.654Z,85.10
2019-02-14T03:52:47.015Z,85.16
2019-02-14T03:55:16.360Z,84.81
2019-02-14T03:57:46.162Z,84.94
2019-02-14T04:00:16.749Z,84.75
2019-02-14T04:02:46.380Z,84.94
2019-02-14T04:05:15.709Z,84.99
2019-02-14T04:07:45.063Z,84.99
2019-02-14T04:10:14.733Z,85.15
2019-02-14T04:12:44.108Z,84.99
2019-02-14T04:15:16.047Z,85.06
2019-02-14T04:17:45.420Z,85.05
2019-02-14T04:20:14.751Z,85.22
2019-02-14T04:22:44.111Z,85.13
2019-02-14T04:25:13.471Z,85.27
2019-02-14T04:27:42.838Z,85.33
2019-02-14T04:30:13.242Z,85.43
2019-02-14T04:32:42.576Z,85.63
2019-02-14T04:35:11.964Z,85.81
2019-02-14T04:37:41.278Z,85.73
2019-02-14T04:40:13.755Z,85.80
2019-02-14T04:42:43.085Z,85.69
2019-02-14T04:45:13.313Z,85.73
2019-02-14T04:47:43.024Z,85.80
2019-02-14T04:50:12.397Z,85.67
2019-02-14T04:52:41.729Z,85.53
2019-02-14T04:55:11.523Z,85.38
2019-02-14T04:57:40.862Z,85.16
2019-02-14T05:00:14.306Z,84.97
2019-02-14T05:02:43.644Z,84.93
2019-02-14T05:05:13.006Z,84.63
2019-02-14T05:07:43.378Z,84.59
2019-02-14T05:10:19.715Z,84.59
2019-02-14T05:12:52.285Z,84.51
2019-02-14T05:15:37.102Z,84.14
2019-02-14T05:18:05.265Z,84.34
2019-02-14T05:20:34.680Z,84.77
2019-02-14T05:23:04.013Z,85.25
2019-02-14T05:25:36.896Z,85.12
2019-02-14T05:28:12.235Z,84.89
2019-02-14T05:30:41.565Z,84.75
2019-02-14T05:33:10.909Z,84.81
2019-02-14T05:35:50.381Z,85.13
2019-02-14T05:38:36.302Z,85.43
2019-02-14T05:40:59.287Z,85.41
2019-02-14T05:43:29.558Z,85.57
2019-02-14T05:45:58.927Z,85.66
2019-02-14T05:48:34.966Z,85.73
2019-02-14T05:51:02.967Z,85.79
2019-02-14T05:53:41.882Z,85.77
2019-02-14T05:56:11.465Z,85.62
2019-02-14T05:58:40.798Z,85.46
2019-02-14T06:01:14.994Z,85.31
2019-02-14T06:03:44.420Z,85.20
2019-02-14T06:06:13.870Z,85.07
2019-02-14T06:08:43.209Z,85.25
2019-02-14T06:11:12.711Z,84.90
2019-02-14T06:13:42.057Z,84.68
2019-02-14T06:16:13.226Z,84.88
2019-02-14T06:18:44.458Z,85.30
2019-02-14T06:21:18.116Z,85.71
2019-02-14T06:23:49.250Z,86.01
2019-02-14T06:26:20.600Z,86.14
2019-02-14T06:28:52.868Z,86.34
2019-02-14T06:31:22.839Z,86.46
2019-02-14T06:33:52.761Z,86.24
2019-02-14T06:36:24.249Z,86.16
2019-02-14T06:38:56.511Z,86.20
2019-02-14T06:41:28.452Z,86.52
2019-02-14T06:44:01.156Z,86.40
2019-02-14T06:46:34.777Z,86.55
2019-02-14T06:49:06.385Z,86.66
2019-02-14T06:51:36.366Z,86.70
2019-02-14T06:54:09.521Z,86.70
2019-02-14T06:56:47.234Z,86.49
2019-02-14T06:59:17.956Z,86.80
2019-02-14T07:01:51.135Z,87.04
2019-02-14T07:04:27.184Z,86.91
2019-02-14T07:06:59.116Z,87.14
2019-02-14T07:09:29.237Z,87.34
2019-02-14T07:12:06.898Z,87.32
2019-02-14T07:14:41.676Z,87.38
2019-02-14T07:17:19.194Z,87.44
2019-02-14T07:19:49.955Z,87.30
2019-02-14T07:22:21.931Z,87.13
2019-02-14T07:24:57.783Z,87.33
2019-02-14T07:27:32.670Z,87.27
2019-02-14T07:30:02.622Z,87.38
2019-02-14T07:32:36.893Z,87.31
2019-02-14T07:35:08.851Z,87.46
2019-02-14T07:37:42.806Z,87.40
2019-02-14T07:40:15.946Z,87.51
2019-02-14T07:42:48.095Z,87.68
2019-02-14T07:45:18.516Z,87.78
2019-02-14T07:47:49.099Z,87.95
2019-02-14T07:50:19.067Z,88.05
2019-02-14T07:52:49.158Z,87.79
2019-02-14T07:55:20.224Z,87.51
2019-02-14T07:57:54.047Z,87.77
2019-02-14T08:00:26.876Z,87.83
2019-02-14T08:02:56.817Z,87.33
2019-02-14T08:05:30.345Z,87.30
2019-02-14T08:08:01.581Z,87.11
2019-02-14T08:10:32.232Z,86.82
2019-02-14T08:13:06.289Z,86.91
2019-02-14T08:15:43.135Z,86.81
2019-02-14T08:18:14.341Z,87.15
2019-02-14T08:20:44.337Z,87.27
2019-02-14T08:23:15.395Z,87.36
2019-02-14T08:25:51.689Z,87.47
2019-02-14T08:28:27.392Z,87.46
2019-02-14T08:31:06.888Z,87.23
2019-02-14T08:33:46.425Z,87.15
2019-02-14T08:36:22.385Z,87.10
2019-02-14T08:38:55.373Z,86.96
2019-02-14T08:41:28.308Z,87.02
2019-02-14T08:44:01.894Z,87.02
2019-02-14T08:46:31.885Z,87.00
2019-02-14T08:49:04.342Z,86.89
2019-02-14T08:51:39.404Z,86.66
2019-02-14T08:54:13.585Z,86.45
2019-02-14T08:56:50.283Z,86.30
2019-02-14T08:59:20.187Z,86.10
2019-02-14T09:01:52.320Z,85.92
2019-02-14T09:04:30.246Z,85.72
2019-02-14T09:07:11.239Z,85.74
2019-02-14T09:09:42.242Z,85.65
2019-02-14T09:12:16.064Z,85.58
2019-02-14T09:14:47.063Z,85.52
2019-02-14T09:17:16.829Z,85.65
2019-02-14T09:19:54.025Z,85.67
2019-02-14T09:22:26.339Z,85.73
2019-02-14T09:24:58.020Z,85.56
2019-02-14T09:27:29.906Z,85.56
2019-02-14T09:30:05.556Z,85.25
2019-02-14T09:32:35.986Z,85.30
2019-02-14T09:35:08.985Z,85.25
2019-02-14T09:37:38.878Z,85.48
2019-02-14T09:40:11.441Z,85.36
2019-02-14T09:42:43.298Z,85.00
2019-02-14T09:45:14.732Z,85.04
2019-02-14T09:47:44.677Z,85.08
2019-02-14T09:50:17.213Z,84.78
2019-02-14T09:52:48.187Z,84.72
2019-02-14T09:55:18.191Z,84.61
2019-02-14T09:57:48.150Z,84.54
2019-02-14T10:00:18.984Z,84.45
2019-02-14T10:02:52.173Z,84.09
2019-02-14T10:05:26.488Z,83.72
2019-02-14T10:07:57.805Z,83.25
2019-02-14T10:10:31.889Z,83.21
2019-02-14T10:13:06.156Z,83.17
2019-02-14T10:15:52.040Z,82.76
2019-02-14T10:18:25.735Z,83.13
2019-02-14T10:20:58.903Z,83.15
2019-02-14T10:23:35.077Z,83.04
2019-02-14T10:26:06.523Z,82.31
2019-02-14T10:28:35.910Z,82.52
2019-02-14T10:31:05.310Z,82.43
2019-02-14T10:33:37.409Z,82.26
2019-02-14T10:36:13.213Z,82.37
2019-02-14T10:38:44.613Z,81.71
2019-02-14T10:41:17.272Z,81.03
2019-02-14T10:43:49.088Z,80.87
2019-02-14T10:46:21.823Z,81.12
2019-02-14T10:48:51.300Z,80.76
2019-02-14T10:51:20.785Z,80.57
2019-02-14T10:53:50.779Z,80.19
2019-02-14T10:56:24.350Z,80.78
2019-02-14T10:58:56.102Z,80.36
2019-02-14T11:01:30.884Z,80.05
2019-02-14T11:04:02.813Z,80.07
2019-02-14T11:06:32.234Z,80.04
2019-02-14T11:09:05.435Z,79.96
2019-02-14T11:11:35.484Z,80.09
2019-02-14T11:14:04.850Z,79.88
2019-02-14T11:16:34.716Z,79.56
2019-02-14T11:19:06.168Z,79.76
2019-02-14T11:21:39.040Z,79.71
2019-02-14T11:24:08.592Z,79.89
2019-02-14T11:26:39.992Z,80.03
2019-02-14T11:29:14.511Z,80.16
2019-02-14T11:31:50.516Z,79.87
2019-02-14T11:34:26.272Z,79.30
2019-02-14T11:36:59.843Z,79.58
2019-02-14T11:39:31.248Z,79.41
2019-02-14T11:42:01.891Z,79.60
2019-02-14T11:44:39.796Z,79.40
2019-02-14T11:47:09.693Z,79.31
2019-02-14T11:49:41.840Z,78.80
2019-02-14T11:52:12.641Z,78.53
2019-02-14T11:54:42.622Z,77.12
2019-02-14T11:57:14.106Z,77.20
2019-02-14T11:59:44.020Z,77.17
2019-02-14T12:02:16.679Z,77.58
2019-02-14T12:04:47.324Z,77.94
2019-02-14T12:07:18.877Z,78.75
2019-02-14T12:09:49.419Z,79.92
2019-02-14T12:12:22.956Z,80.69
2019-02-14T12:14:54.221Z,80.53
2019-02-14T12:17:25.133Z,80.36
2019-02-14T12:19:58.158Z,80.46
2019-02-14T12:22:34.788Z,80.38
2019-02-14T12:25:11.854Z,79.76
2019-02-14T12:27:43.323Z,79.51
2019-02-14T12:30:20.842Z,80.07
2019-02-14T12:32:57.383Z,78.94
2019-02-14T12:35:28.415Z,78.70
2019-02-14T12:37:58.481Z,78.17
2019-02-14T12:40:32.082Z,78.07
2019-02-14T12:43:06.823Z,78.11
2019-02-14T12:45:38.657Z,78.35
2019-02-14T12:48:12.351Z,78.64
2019-02-14T12:50:45.308Z,78.73
2019-02-14T12:53:20.232Z,78.36
2019-02-14T12:55:55.171Z,78.05
2019-02-14T12:58:26.192Z,78.04
2019-02-14T13:00:58.301Z,78.41
2019-02-14T13:03:30.853Z,78.10
2019-02-14T13:06:00.984Z,78.04
2019-02-14T13:08:30.862Z,78.16
2019-02-14T13:11:00.336Z,77.62
2019-02-14T13:13:30.503Z,77.45
2019-02-14T13:16:05.922Z,77.67
2019-02-14T13:18:39.025Z,77.28
2019-02-14T13:21:14.106Z,77.30
2019-02-14T13:23:47.135Z,77.29
2019-02-14T13:26:25.045Z,77.34
2019-02-14T13:28:55.472Z,76.47
2019-02-14T13:31:32.154Z,76.53
2019-02-14T13:34:00.617Z,76.21
2019-02-14T13:36:31.145Z,74.99
2019-02-14T13:39:06.023Z,75.22
2019-02-14T13:41:36.421Z,74.86
2019-02-14T13:44:09.856Z,74.86
2019-02-14T13:46:41.275Z,74.59
2019-02-14T13:49:10.943Z,74.35
2019-02-14T13:51:41.039Z,75.31
2019-02-14T13:54:10.374Z,74.99
2019-02-14T13:56:39.739Z,75.50
2019-02-14T13:59:10.183Z,75.04
2019-02-14T14:01:39.629Z,75.39
2019-02-14T14:04:09.001Z,75.28
2019-02-14T14:06:38.340Z,75.51
2019-02-14T14:09:08.900Z,75.79
2019-02-14T14:11:38.308Z,75.63
2019-02-14T14:14:07.685Z,75.40
2019-02-14T14:16:37.566Z,74.33
2019-02-14T14:19:08.240Z,74.36
2019-02-14T14:21:41.081Z,73.45
2019-02-14T14:24:16.063Z,73.49
2019-02-14T14:26:51.716Z,73.69
2019-02-14T14:29:25.883Z,73.71
2019-02-14T14:31:56.965Z,73.91
2019-02-14T14:34:27.115Z,72.67
2019-02-14T14:36:57.085Z,72.75
2019-02-14T14:39:29.953Z,73.24
2019-02-14T14:41:59.739Z,73.86
2019-02-14T14:44:31.316Z,74.02
2019-02-14T14:47:01.156Z,73.57
2019-02-14T14:49:36.904Z,73.86
2019-02-14T14:52:16.185Z,73.76
2019-02-14T14:54:45.616Z,73.75
2019-02-14T14:57:15.874Z,73.87
2019-02-14T14:59:47.553Z,73.50
2019-02-14T15:02:23.463Z,73.25
2019-02-14T15:04:55.289Z,73.34
2019-02-14T15:07:32.964Z,73.67
2019-02-14T15:10:02.872Z,73.45
2019-02-14T15:12:35.790Z,73.79
2019-02-14T15:15:10.276Z,73.55
2019-02-14T15:17:40.238Z,73.60
2019-02-14T15:20:12.636Z,74.03
2019-02-14T15:22:46.769Z,74.17
2019-02-14T15:25:20.687Z,74.50
2019-02-14T15:27:50.575Z,74.85
2019-02-14T15:30:20.568Z,75.37
2019-02-14T15:32:52.013Z,75.59
2019-02-14T15:35:26.194Z,75.90
2019-02-14T15:37:56.081Z,76.23
2019-02-14T15:40:26.072Z,76.71
2019-02-14T15:42:57.617Z,76.92
2019-02-14T15:45:28.110Z,76.83
2019-02-14T15:48:00.519Z,77.39
2019-02-14T15:50:34.521Z,77.32
2019-02-14T15:53:10.329Z,77.84
2019-02-14T15:55:43.784Z,78.16
2019-02-14T15:58:15.836Z,78.37
2019-02-14T16:00:49.416Z,78.39
2019-02-14T16:03:19.641Z,78.25
2019-02-14T16:05:53.236Z,78.36
2019-02-14T16:08:27.565Z,78.17
2019-02-14T16:11:02.354Z,78.17
2019-02-14T16:13:38.165Z,78.27
2019-02-14T16:16:08.100Z,78.47
2019-02-14T16:18:40.784Z,78.39
2019-02-14T16:21:15.643Z,78.27
2019-02-14T16:23:46.874Z,78.21
2019-02-14T16:26:18.436Z,78.20
2019-02-14T16:28:52.025Z,78.47
2019-02-14T16:31:23.433Z,78.55
2019-02-14T16:33:53.316Z,78.44
2019-02-14T16:36:23.353Z,78.50
2019-02-14T16:39:01.268Z,78.43
2019-02-14T16:41:35.778Z,78.48
2019-02-14T16:44:09.101Z,78.50
2019-02-14T16:46:44.961Z,78.46
2019-02-14T16:49:19.742Z,78.42
2019-02-14T16:51:55.444Z,78.42
2019-02-14T16:54:28.621Z,78.31
2019-02-14T16:57:00.303Z,78.64
2019-02-14T16:59:29.859Z,78.81
2019-02-14T17:02:07.935Z,78.98
2019-02-14T17:04:37.878Z,78.86
2019-02-14T17:07:09.598Z,79.02
2019-02-14T17:09:41.022Z,79.25
2019-02-14T17:12:10.912Z,79.13
2019-02-14T17:14:45.342Z,79.20
2019-02-14T17:17:17.935Z,79.35
2019-02-14T17:19:52.707Z,79.26
2019-02-14T17:22:23.797Z,79.27
2019-02-14T17:24:56.043Z,79.35
2019-02-14T17:27:30.802Z,79.53
2019-02-14T17:30:04.486Z,79.56
2019-02-14T17:32:34.916Z,79.57
2019-02-14T17:35:05.632Z,79.64
2019-02-14T17:37:37.257Z,79.63
2019-02-14T17:40:09.729Z,79.91
2019-02-14T17:42:46.746Z,80.04
2019-02-14T17:45:16.658Z,79.95
2019-02-14T17:47:47.684Z,80.14
2019-02-14T17:52:46.229Z,80.14
2019-02-14T17:55:19.158Z,80.00
2019-02-14T17:57:52.265Z,80.28
2019-02-14T18:00:22.125Z,80.22
2019-02-14T18:02:55.156Z,80.20
2019-02-14T18:05:26.034Z,80.20
2019-02-14T18:07:58.218Z,80.08
2019-02-14T18:10:31.543Z,79.98
2019-02-14T18:13:06.652Z,80.11
2019-02-14T18:15:37.477Z,80.30
2019-02-14T18:18:06.987Z,80.18
2019-02-14T18:20:36.365Z,80.36
2019-02-14T18:23:05.740Z,80.38
2019-02-14T18:25:35.244Z,80.44
2019-02-14T18:28:04.680Z,80.69
2019-02-14T18:30:34.012Z,80.52
2019-02-14T18:33:03.389Z,80.67
2019-02-14T18:35:32.753Z,80.76
2019-02-14T18:38:02.115Z,80.79
2019-02-14T18:40:31.447Z,81.04
2019-02-14T18:43:00.821Z,81.01
2019-02-14T18:45:30.221Z,80.75
2019-02-14T18:47:59.611Z,80.77
2019-02-14T18:50:28.942Z,80.95
2019-02-14T18:52:58.330Z,81.30
2019-02-14T18:55:27.668Z,81.16
2019-02-14T18:57:57.054Z,81.12
2019-02-14T19:00:26.391Z,81.06
2019-02-14T19:02:55.772Z,81.42
2019-02-14T19:05:25.189Z,81.54
2019-02-14T19:07:54.788Z,81.63
2019-02-14T19:10:24.167Z,81.38
2019-02-14T19:12:55.717Z,81.52
2019-02-14T19:15:29.572Z,81.56
2019-02-14T19:17:59.081Z,81.58
2019-02-14T19:20:28.471Z,81.16
2019-02-14T19:22:57.822Z,81.39
2019-02-14T19:25:29.653Z,81.40
2019-02-14T19:27:58.258Z,81.55
2019-02-14T19:30:33.355Z,82.02
2019-02-14T19:33:02.780Z,82.14
2019-02-14T19:35:32.242Z,82.02
2019-02-14T19:38:01.655Z,81.62
2019-02-14T19:40:31.057Z,81.78
2019-02-14T19:43:00.484Z,81.77
2019-02-14T19:45:36.400Z,81.55
2019-02-14T19:48:01.108Z,81.37
2019-02-14T19:50:31.829Z,81.28
2019-02-14T19:53:01.699Z,81.25
2019-02-14T19:55:31.071Z,81.23
2019-02-14T19:58:00.480Z,81.10
2019-02-14T20:00:31.378Z,81.40
2019-02-14T20:03:00.832Z,81.43
2019-02-14T20:05:30.220Z,81.47
2019-02-14T20:07:59.609Z,81.55
2019-02-14T20:10:28.983Z,81.92
2019-02-14T20:12:58.331Z,81.69
2019-02-14T20:15:37.081Z,81.51
2019-02-14T20:18:01.873Z,81.64
2019-02-14T20:20:31.606Z,81.64
2019-02-14T20:23:01.312Z,81.75
2019-02-14T20:25:31.057Z,81.93
2019-02-14T20:28:00.390Z,82.02
2019-02-14T20:30:31.833Z,82.34
2019-02-14T20:33:04.740Z,82.31
2019-02-14T20:35:34.449Z,82.34
2019-02-14T20:38:03.844Z,82.45
2019-02-14T20:40:33.218Z,82.28
2019-02-14T20:43:03.057Z,82.30
2019-02-14T20:45:35.073Z,82.17
2019-02-14T20:48:04.411Z,81.91
2019-02-14T20:50:35.239Z,81.65
2019-02-14T20:53:07.843Z,81.50
2019-02-14T20:55:37.209Z,81.48
2019-02-14T20:58:06.536Z,81.26
2019-02-14T21:00:38.681Z,80.90
2019-02-14T21:03:08.020Z,81.03
2019-02-14T21:05:37.424Z,80.86
2019-02-14T21:08:06.858Z,80.84
2019-02-14T21:10:36.240Z,80.88
2019-02-14T21:13:05.564Z,80.97
2019-02-14T21:15:34.935Z,80.82
2019-02-14T21:18:06.939Z,81.00
2019-02-14T21:20:36.314Z,80.84
2019-02-14T21:23:05.664Z,81.00
2019-02-14T21:25:35.071Z,80.91
2019-02-14T21:28:05.496Z,80.81
2019-02-14T21:30:36.343Z,80.60
2019-02-14T21:33:07.592Z,80.84
2019-02-14T21:35:37.148Z,80.63
2019-02-14T21:38:06.956Z,80.52
2019-02-14T21:40:36.336Z,80.52
2019-02-14T21:43:05.819Z,80.57
2019-02-14T21:45:35.361Z,80.40
2019-02-14T21:48:05.701Z,80.18
2019-02-14T21:50:35.118Z,80.12
2019-02-14T21:53:04.466Z,79.98
2019-02-14T21:55:38.043Z,80.16
2019-02-14T21:58:08.543Z,80.26
2019-02-14T22:00:37.886Z,80.03
2019-02-14T22:03:07.375Z,79.84
2019-02-14T22:05:36.808Z,79.87
2019-02-14T22:08:06.143Z,80.13
2019-02-14T22:10:35.779Z,79.86
2019-02-14T22:13:05.130Z,79.80
2019-02-14T22:15:34.485Z,79.65
2019-02-14T22:18:04.098Z,79.78
2019-02-14T22:20:33.463Z,80.04
2019-02-14T22:23:02.836Z,80.11
2019-02-14T22:25:32.182Z,79.98
2019-02-14T22:28:01.554Z,79.98
2019-02-14T22:30:30.885Z,80.13
2019-02-14T22:33:00.250Z,80.48
2019-02-14T22:35:29.581Z,80.24
2019-02-14T22:37:58.956Z,80.38
2019-02-14T22:40:28.292Z,80.38
2019-02-14T22:42:57.656Z,80.29
2019-02-14T22:45:26.985Z,80.31
2019-02-14T22:47:56.340Z,80.19
2019-02-14T22:50:25.679Z,79.67
2019-02-14T22:52:55.042Z,79.62
2019-02-14T22:55:24.823Z,79.62
2019-02-14T22:57:54.184Z,80.02
2019-02-14T23:00:38.286Z,79.89
2019-02-14T23:03:07.668Z,79.94
2019-02-14T23:05:37.001Z,79.92
2019-02-14T23:08:06.364Z,79.96
2019-02-14T23:10:35.705Z,79.98
2019-02-14T23:13:05.089Z,80.09
2019-02-14T23:15:34.428Z,80.17
2019-02-14T23:18:03.957Z,80.21
2019-02-14T23:20:33.284Z,80.27
2019-02-14T23:23:02.649Z,80.54
2019-02-14T23:25:31.985Z,80.77
2019-02-14T23:28:01.342Z,80.95
2019-02-14T23:30:30.673Z,81.37
2019-02-14T23:33:00.112Z,81.78
2019-02-14T23:35:29.441Z,82.09
2019-02-14T23:37:58.809Z,82.19
2019-02-14T23:40:28.149Z,81.83
2019-02-14T23:43:04.329Z,82.10
2019-02-14T23:45:28.552Z,82.36
2019-02-14T23:47:57.909Z,82.57
2019-02-14T23:50:27.246Z,82.63
2019-02-14T23:52:56.605Z,82.49
2019-02-14T23:55:26.093Z,82.44
2019-02-14T23:57:55.458Z,82.18
